»·PEaware :: N53176 KSNA-KRNM

N53176 :: KSNA-KRNM

FLIGHT INFORMATION

Flight Status: Arrived
Operator: Privately registered:
United States
More flights under this callsign
Pilot: Bill F. (18685)
Aircraft: CESSNA 172 SKYHAWK
(C172)
More flights by this aircraft type
Origin: KSNA John Wayne-Orange Co
United States
Destination: KRNM Ramona
United States
More flights between these airports :: More routes between these airports
Route: +V23 OCN V208 JLI
File this flight plan on PilotEdge
Remarks: TEC Route RNM
Altitude:
(Current/Filed)
5,000ft
Speed:
(Current/Filed)
112kts
Departed: 21-May-20 07:45 PM
Arrived: 21-May-20 08:29 PM
Distance/Time
Traveled:
61nm/0:44
Distance/Time
To Go:
Arrived

Flight Plot

Page will automatically refresh every two minutes.


Map Options




Map Legend


Flown Route
Filed Route
Departure Airport
Arrival Airport
Navaid (VOR, NDB)
Fix

Horizontal Profiles

Position Reports

Time Latitude Longitude Heading Altitude Ground
Speed
21-May-20 19:20 33.676517 -117.871139 114 60ft 0kts
21-May-20 19:21 33.676517 -117.871139 114 60ft 0kts
21-May-20 19:22 33.676518 -117.871139 115 60ft 0kts
21-May-20 19:23 33.676517 -117.871138 112 60ft 0kts
21-May-20 19:24 33.676517 -117.871138 112 60ft 0kts
21-May-20 19:25 33.676517 -117.871138 112 60ft 0kts
21-May-20 19:26 33.676517 -117.871138 112 60ft 0kts
21-May-20 19:27 33.676517 -117.871138 112 60ft 0kts
21-May-20 19:28 33.676517 -117.871138 112 60ft 0kts
21-May-20 19:29 33.676517 -117.871138 112 60ft 0kts
21-May-20 19:30 33.676491 -117.871014 97 60ft 1kts
21-May-20 19:31 33.676398 -117.870640 114 60ft 0kts
21-May-20 19:32 33.676398 -117.870640 114 60ft 0kts
21-May-20 19:33 33.676398 -117.870640 114 60ft 0kts
21-May-20 19:34 33.676398 -117.870640 114 60ft 0kts
21-May-20 19:35 33.677515 -117.869166 26 60ft 14kts
21-May-20 19:36 33.677582 -117.868683 200 60ft 0kts
21-May-20 19:37 33.677582 -117.868683 200 60ft 0kts
21-May-20 19:38 33.677582 -117.868683 200 60ft 0kts
21-May-20 19:39 33.677582 -117.868683 200 60ft 0kts
21-May-20 19:40 33.678038 -117.868790 39 60ft 7kts
21-May-20 19:41 33.681233 -117.866624 91 60ft 6kts
21-May-20 19:42 33.681208 -117.866478 110 60ft 0kts
21-May-20 19:43 33.681206 -117.866472 111 60ft 1kts
21-May-20 19:44 33.670754 -117.871683 210 461ft 66kts
21-May-20 19:45 33.652292 -117.876106 197 1356ft 69kts
21-May-20 19:46 33.632893 -117.879895 190 2145ft 76kts
21-May-20 19:47 33.609710 -117.883095 190 2765ft 89kts
21-May-20 19:48 33.584201 -117.887464 190 3356ft 94kts
21-May-20 19:49 33.567196 -117.863991 118 3878ft 102kts
21-May-20 19:50 33.556615 -117.832271 117 4471ft 99kts
21-May-20 19:51 33.546429 -117.801936 116 5067ft 94kts
21-May-20 19:52 33.536919 -117.773464 115 5665ft 87kts
21-May-20 19:53 33.526157 -117.749536 136 6268ft 79kts
21-May-20 19:54 33.509909 -117.731262 135 6872ft 80kts
21-May-20 19:55 33.490247 -117.710287 141 6987ft 106kts
21-May-20 19:56 33.468458 -117.684083 135 6994ft 112kts
21-May-20 19:57 33.446066 -117.657492 131 6998ft 116kts
21-May-20 19:59 33.421232 -117.628406 134 7005ft 126kts
21-May-20 20:00 33.395831 -117.598994 133 7006ft 121kts
21-May-20 20:01 33.373216 -117.571553 132 7005ft 111kts
21-May-20 20:02 33.351061 -117.545336 133 7004ft 110kts
21-May-20 20:03 33.329022 -117.519768 136 7001ft 105kts
21-May-20 20:04 33.308507 -117.495817 134 6999ft 100kts
21-May-20 20:05 33.288328 -117.472042 134 6963ft 102kts
21-May-20 20:06 33.275424 -117.442857 103 6794ft 103kts
21-May-20 20:07 33.268666 -117.408806 105 6286ft 105kts
21-May-20 20:08 33.261462 -117.374327 106 5778ft 106kts
21-May-20 20:09 33.254046 -117.339530 107 5270ft 108kts
21-May-20 20:10 33.246543 -117.304345 107 4764ft 108kts
21-May-20 20:11 33.238978 -117.268759 107 4255ft 112kts
21-May-20 20:12 33.231717 -117.234022 105 4009ft 99kts
21-May-20 20:13 33.225292 -117.202298 106 4010ft 95kts
21-May-20 20:14 33.218532 -117.170330 106 4011ft 101kts
21-May-20 20:15 33.211346 -117.137235 106 4011ft 102kts
21-May-20 20:16 33.201748 -117.105843 148 4006ft 100kts
21-May-20 20:17 33.173402 -117.109551 191 3753ft 110kts
21-May-20 20:17 33.148142 -117.115750 189 3420ft 110kts
21-May-20 20:19 33.121637 -117.126883 247 3643ft 74kts
21-May-20 20:20 33.099068 -117.130605 162 3650ft 101kts
21-May-20 20:20 33.075335 -117.129648 163 3651ft 106kts
21-May-20 20:21 33.066165 -117.095543 102 3552ft 121kts
21-May-20 20:22 33.059897 -117.056142 101 3246ft 120kts
21-May-20 20:23 33.054269 -117.017539 101 3191ft 118kts
21-May-20 20:24 33.048468 -116.978316 100 2781ft 111kts
21-May-20 20:25 33.041632 -116.944457 116 2384ft 95kts
21-May-20 20:26 33.032960 -116.916330 106 2332ft 90kts
21-May-20 20:27 33.038045 -116.904584 259 1835ft 63kts
21-May-20 20:28 33.040128 -116.919884 335 1392ft 8kts
21-May-20 20:29 33.039696 -116.914137 99 1392ft 26kts
21-May-20 20:30 33.039133 -116.908141 11 1392ft 2kts
21-May-20 20:31 33.039155 -116.908157 286 1392ft 0kts

Navigation Log

Ident Type
Flight plan parsing failed, navigation log unavailable